createdAt,value
2023-09-04T00:01:07.309Z,4.40
2023-09-04T00:05:08.992Z,4.60
2023-09-04T00:09:10.301Z,4.50
2023-09-04T00:13:13.670Z,4.22
2023-09-04T00:17:15.013Z,5.15
2023-09-04T00:21:16.836Z,4.78
2023-09-04T00:25:18.231Z,4.55
2023-09-04T00:29:21.134Z,4.97
2023-09-04T00:33:22.736Z,4.70
2023-09-04T00:37:24.084Z,4.78
2023-09-04T00:41:25.568Z,4.60
2023-09-04T00:45:26.928Z,4.55
2023-09-04T00:49:29.751Z,4.50
2023-09-04T00:53:31.406Z,5.13
2023-09-04T00:57:35.394Z,4.68
2023-09-04T01:01:37.021Z,4.75
2023-09-04T01:05:38.372Z,4.93
2023-09-04T01:09:39.738Z,4.80
2023-09-04T01:14:19.006Z,4.72
2023-09-04T01:18:20.641Z,4.88
2023-09-04T01:22:22.160Z,6.40
2023-09-04T01:26:36.238Z,8.55
2023-09-04T01:30:59.408Z,8.05
2023-09-04T01:35:01.769Z,8.13
2023-09-04T01:39:04.564Z,7.18
2023-09-04T01:43:05.920Z,6.75
2023-09-04T01:47:07.338Z,7.60
2023-09-04T01:51:08.667Z,7.22
2023-09-04T01:55:10.053Z,8.33
2023-09-04T01:59:11.444Z,8.27
2023-09-04T02:03:15.382Z,7.88
2023-09-04T02:07:17.498Z,8.32
2023-09-04T02:11:18.852Z,7.70
2023-09-04T02:15:20.166Z,7.05
2023-09-04T02:19:21.526Z,7.03
2023-09-04T02:23:22.886Z,7.77
2023-09-04T02:27:24.232Z,6.43
2023-09-04T02:31:25.646Z,6.43
2023-09-04T02:35:27.015Z,6.28
2023-09-04T02:39:28.358Z,6.28
2023-09-04T02:43:29.712Z,6.10
2023-09-04T02:47:31.086Z,5.53
2023-09-04T02:51:34.648Z,6.20
2023-09-04T02:55:36.000Z,6.10
2023-09-04T02:59:37.458Z,6.40
2023-09-04T03:03:38.968Z,5.57
2023-09-04T03:07:40.396Z,6.10
2023-09-04T03:11:41.809Z,5.50
2023-09-04T03:15:43.193Z,5.43
2023-09-04T03:19:44.569Z,5.90
2023-09-04T03:23:48.987Z,5.93
2023-09-04T03:27:50.382Z,5.63
2023-09-04T03:31:52.724Z,6.70
2023-09-04T03:35:54.116Z,6.35
2023-09-04T03:39:55.413Z,6.83
2023-09-04T03:43:56.801Z,6.90
2023-09-04T03:47:58.311Z,6.60
2023-09-04T03:52:01.019Z,6.03
2023-09-04T03:56:04.117Z,6.43
2023-09-04T04:00:15.712Z,6.20
2023-09-04T04:04:17.174Z,7.20
2023-09-04T04:08:18.599Z,6.57
2023-09-04T04:12:19.947Z,6.50
2023-09-04T04:16:21.468Z,7.28
2023-09-04T04:20:23.350Z,6.33
2023-09-04T04:24:24.735Z,6.47
2023-09-04T04:28:26.958Z,6.70
2023-09-04T04:32:29.009Z,6.63
2023-09-04T04:36:31.195Z,6.63
2023-09-04T04:40:32.642Z,6.80
2023-09-04T04:44:33.960Z,6.17
2023-09-04T04:48:35.296Z,6.50
2023-09-04T04:52:37.030Z,6.80
2023-09-04T04:56:38.523Z,6.70
2023-09-04T05:00:40.192Z,7.10
2023-09-04T05:04:46.774Z,6.87
2023-09-04T05:08:48.209Z,6.53
2023-09-04T05:12:49.525Z,6.17
2023-09-04T05:16:50.951Z,6.33
2023-09-04T05:20:52.312Z,5.77
2023-09-04T05:24:53.622Z,6.00
2023-09-04T05:28:55.303Z,5.90
2023-09-04T05:32:56.684Z,6.23
2023-09-04T05:37:13.240Z,5.87
2023-09-04T05:41:17.747Z,6.10
2023-09-04T05:45:20.951Z,5.93
2023-09-04T05:49:25.368Z,5.47
2023-09-04T05:53:30.158Z,5.30
2023-09-04T05:57:32.276Z,5.63
2023-09-04T06:01:38.307Z,5.45
2023-09-04T06:05:42.817Z,5.53
2023-09-04T06:09:46.872Z,6.00
2023-09-04T06:13:49.929Z,5.95
2023-09-04T06:17:51.305Z,5.80
2023-09-04T06:21:52.716Z,5.55
2023-09-04T06:25:54.140Z,5.68
2023-09-04T06:29:55.445Z,5.75
2023-09-04T06:33:56.829Z,6.32
2023-09-04T06:37:58.597Z,5.97
2023-09-04T06:41:59.957Z,5.88
2023-09-04T06:46:02.977Z,5.35
2023-09-04T06:50:04.742Z,5.30
2023-09-04T06:54:06.166Z,5.82
2023-09-04T06:58:07.525Z,5.68
2023-09-04T07:02:10.052Z,5.13
2023-09-04T07:06:11.452Z,4.30
2023-09-04T07:10:13.112Z,4.68
2023-09-04T07:14:14.490Z,5.75
2023-09-04T07:18:15.877Z,4.47
2023-09-04T07:22:17.324Z,4.43
2023-09-04T07:26:18.653Z,5.45
2023-09-04T07:30:19.983Z,5.43
2023-09-04T07:34:21.335Z,3.20
2023-09-04T07:38:22.727Z,4.20
2023-09-04T07:42:24.538Z,4.75
2023-09-04T07:46:25.881Z,3.85
2023-09-04T07:50:27.210Z,3.00
2023-09-04T07:54:28.572Z,3.35
2023-09-04T07:58:29.950Z,3.97
2023-09-04T08:02:31.306Z,4.63
2023-09-04T08:06:32.872Z,2.80
2023-09-04T08:10:34.262Z,3.15
2023-09-04T08:14:37.251Z,2.92
2023-09-04T08:18:38.676Z,3.53
2023-09-04T08:22:40.065Z,3.97
2023-09-04T08:26:41.402Z,5.93
2023-09-04T08:30:42.766Z,4.03
2023-09-04T08:34:44.123Z,5.07
2023-09-04T08:38:46.169Z,3.90
2023-09-04T08:42:50.091Z,5.07
2023-09-04T08:46:52.344Z,3.55
2023-09-04T08:50:53.872Z,4.05
2023-09-04T08:54:55.795Z,4.63
2023-09-04T08:58:57.281Z,3.03
2023-09-04T09:03:02.577Z,3.88
2023-09-04T09:07:05.704Z,4.38
2023-09-04T09:11:16.434Z,3.85
2023-09-04T09:15:18.589Z,4.25
2023-09-04T09:19:23.887Z,4.28
2023-09-04T09:23:25.581Z,4.15
2023-09-04T09:27:32.264Z,3.72
2023-09-04T09:31:33.911Z,4.65
2023-09-04T09:35:35.744Z,4.03
2023-09-04T09:39:39.949Z,3.47
2023-09-04T09:43:44.332Z,3.40
2023-09-04T09:47:46.772Z,4.10
2023-09-04T09:51:53.041Z,3.78
2023-09-04T09:55:54.901Z,3.95
2023-09-04T10:00:01.004Z,4.40
2023-09-04T10:04:09.567Z,3.85
2023-09-04T10:08:34.114Z,4.30
2023-09-04T10:12:44.776Z,3.00
2023-09-04T10:16:56.923Z,3.80
2023-09-04T10:21:00.197Z,4.75
2023-09-04T10:25:09.797Z,4.00
2023-09-04T10:29:18.711Z,4.15
2023-09-04T10:33:23.045Z,4.10
2023-09-04T10:37:28.084Z,3.28
2023-09-04T10:41:31.710Z,3.47
2023-09-04T10:45:33.569Z,3.70
2023-09-04T10:49:35.169Z,3.42
2023-09-04T10:53:36.609Z,2.92
2023-09-04T10:58:03.096Z,3.28
2023-09-04T11:02:25.892Z,3.40
2023-09-04T11:06:27.239Z,3.10
2023-09-04T11:10:37.353Z,3.10
2023-09-04T11:14:46.368Z,3.60
2023-09-04T11:18:47.903Z,3.47
2023-09-04T11:22:49.652Z,4.43
2023-09-04T11:26:51.022Z,2.90
2023-09-04T11:30:59.801Z,3.60
2023-09-04T11:40:16.927Z,3.10
2023-09-04T11:44:18.368Z,3.10
2023-09-04T11:48:19.804Z,3.47
2023-09-04T11:52:28.382Z,3.20
2023-09-04T11:56:29.942Z,3.80
2023-09-04T12:00:31.412Z,3.05
2023-09-04T12:04:33.265Z,3.42
2023-09-04T12:08:34.702Z,2.97
2023-09-04T12:12:36.131Z,3.20
2023-09-04T12:16:37.739Z,3.75
2023-09-04T12:20:44.890Z,3.00
2023-09-04T12:25:09.029Z,2.75
2023-09-04T12:29:11.765Z,3.00
2023-09-04T12:33:14.441Z,3.97
2023-09-04T12:37:15.776Z,3.40
2023-09-04T12:41:17.109Z,2.90
2023-09-04T12:45:18.513Z,4.05
2023-09-04T12:49:20.162Z,3.13
2023-09-04T12:53:21.628Z,3.20
2023-09-04T12:57:22.951Z,3.22
2023-09-04T13:01:24.389Z,3.30
2023-09-04T13:05:26.178Z,3.05
2023-09-04T13:09:27.936Z,3.58
2023-09-04T13:13:29.766Z,2.20
2023-09-04T13:17:31.867Z,3.40
2023-09-04T13:21:33.370Z,2.90
2023-09-04T13:25:34.961Z,3.25
2023-09-04T13:29:36.307Z,3.00
2023-09-04T13:33:38.544Z,2.78
2023-09-04T13:37:39.906Z,2.75
2023-09-04T13:41:41.274Z,2.90
2023-09-04T13:45:42.591Z,3.35
2023-09-04T13:49:46.040Z,3.20
2023-09-04T13:53:47.377Z,3.03
2023-09-04T13:57:51.476Z,2.97
2023-09-04T14:01:52.915Z,3.10
2023-09-04T14:05:54.456Z,2.83
2023-09-04T14:09:56.060Z,2.95
2023-09-04T14:13:57.590Z,2.58
2023-09-04T14:17:59.056Z,2.60
2023-09-04T14:22:00.545Z,2.70
2023-09-04T14:26:02.038Z,2.35
2023-09-04T14:30:03.905Z,2.63
2023-09-04T14:34:05.215Z,2.60
2023-09-04T14:38:07.253Z,2.45
2023-09-04T14:42:09.055Z,3.03
2023-09-04T14:46:10.943Z,3.17
2023-09-04T14:50:12.469Z,2.60
2023-09-04T14:54:13.861Z,2.47
2023-09-04T14:58:15.200Z,2.60
2023-09-04T15:02:16.628Z,3.00
2023-09-04T15:06:18.430Z,2.58
2023-09-04T15:10:19.960Z,2.70
2023-09-04T15:14:21.431Z,2.40
2023-09-04T15:18:23.193Z,2.40
2023-09-04T15:22:24.780Z,2.50
2023-09-04T15:26:26.146Z,2.60
2023-09-04T15:30:28.746Z,2.60
2023-09-04T15:34:30.456Z,2.58
2023-09-04T15:38:35.321Z,2.35
2023-09-04T15:42:37.052Z,2.45
2023-09-04T15:46:38.670Z,2.80
2023-09-04T15:50:40.372Z,2.35
2023-09-04T15:54:41.782Z,2.97
2023-09-04T15:58:43.143Z,2.60
2023-09-04T16:02:44.636Z,2.72
2023-09-04T16:06:46.099Z,2.72
2023-09-04T16:10:48.980Z,2.53
2023-09-04T16:14:50.475Z,2.97
2023-09-04T16:18:51.891Z,2.72
2023-09-04T16:22:53.304Z,3.00
2023-09-04T16:26:54.717Z,2.90
2023-09-04T16:30:56.953Z,3.03
2023-09-04T16:34:58.434Z,2.75
2023-09-04T16:39:00.549Z,2.60
2023-09-04T16:43:01.900Z,2.90
2023-09-04T16:47:03.348Z,2.75
2023-09-04T16:51:04.671Z,2.80
2023-09-04T16:55:07.698Z,2.83
2023-09-04T16:59:10.382Z,3.20
2023-09-04T17:03:14.710Z,2.75
2023-09-04T17:07:16.479Z,2.83
2023-09-04T17:11:17.832Z,3.08
2023-09-04T17:15:20.014Z,3.10
2023-09-04T17:19:21.408Z,2.90
2023-09-04T17:23:22.782Z,3.10
2023-09-04T17:27:24.178Z,3.50
2023-09-04T17:31:25.552Z,3.20
2023-09-04T17:35:26.992Z,3.58
2023-09-04T17:39:30.243Z,3.00
2023-09-04T17:43:31.643Z,3.60
2023-09-04T17:47:33.591Z,3.63
2023-09-04T17:51:35.017Z,3.40
2023-09-04T17:55:36.357Z,3.33
2023-09-04T17:59:37.751Z,3.60
2023-09-04T18:03:39.300Z,4.03
2023-09-04T18:07:40.824Z,4.32
2023-09-04T18:11:42.157Z,4.47
2023-09-04T18:15:43.605Z,4.38
2023-09-04T18:19:44.994Z,6.20
2023-09-04T18:23:46.392Z,4.32
2023-09-04T18:27:49.055Z,4.43
2023-09-04T18:31:50.435Z,4.03
2023-09-04T18:35:53.496Z,5.03
2023-09-04T18:39:55.885Z,4.00
2023-09-04T18:43:57.198Z,4.72
2023-09-04T18:47:58.620Z,4.50
2023-09-04T18:52:00.017Z,4.88
2023-09-04T18:56:01.392Z,5.30
2023-09-04T19:00:08.000Z,5.75
2023-09-04T19:04:09.428Z,5.75
2023-09-04T19:08:10.788Z,5.80
2023-09-04T19:12:12.266Z,5.80
2023-09-04T19:16:14.919Z,4.78
2023-09-04T19:20:16.393Z,4.28
2023-09-04T19:24:17.764Z,3.88
2023-09-04T19:28:19.126Z,4.20
2023-09-04T19:32:20.448Z,4.47
2023-09-04T19:36:21.861Z,3.88
2023-09-04T19:40:23.430Z,3.38
2023-09-04T19:44:24.768Z,4.00
2023-09-04T19:48:26.291Z,3.80
2023-09-04T19:52:27.929Z,3.42
2023-09-04T19:56:30.362Z,3.67
2023-09-04T20:00:34.353Z,3.13
2023-09-04T20:04:35.725Z,3.72
2023-09-04T20:08:44.610Z,3.42
2023-09-04T20:12:45.952Z,3.60
2023-09-04T20:16:47.392Z,3.40
2023-09-04T20:20:48.729Z,4.00
2023-09-04T20:24:50.712Z,3.40
2023-09-04T20:28:57.097Z,4.00
2023-09-04T20:33:10.831Z,3.50
2023-09-04T20:37:12.302Z,4.00
2023-09-04T20:41:13.708Z,3.90
2023-09-04T20:45:15.112Z,4.07
2023-09-04T20:49:16.593Z,3.90
2023-09-04T20:53:17.986Z,3.65
2023-09-04T20:57:19.443Z,3.90
2023-09-04T21:01:21.188Z,4.65
2023-09-04T21:05:22.745Z,4.45
2023-09-04T21:09:24.082Z,4.05
2023-09-04T21:13:44.179Z,4.00
2023-09-04T21:18:04.289Z,4.70
2023-09-04T21:22:24.037Z,4.20
2023-09-04T21:26:43.898Z,4.82
2023-09-04T21:31:03.880Z,4.47
2023-09-04T21:35:24.098Z,4.07
2023-09-04T21:39:44.279Z,4.57
2023-09-04T21:44:04.542Z,4.28
2023-09-04T21:48:24.301Z,4.00
2023-09-04T21:52:44.402Z,3.55
2023-09-04T21:57:04.158Z,4.13
2023-09-04T22:01:24.040Z,3.60
2023-09-04T22:05:44.043Z,4.00
2023-09-04T22:10:05.937Z,4.13
2023-09-04T22:14:25.907Z,4.40
2023-09-04T22:18:48.471Z,3.95
2023-09-04T22:23:08.824Z,4.28
2023-09-04T22:27:28.603Z,3.80
2023-09-04T22:31:48.463Z,2.30
2023-09-04T22:36:08.345Z,2.40
2023-09-04T22:40:28.613Z,2.80
2023-09-04T22:44:48.769Z,2.20
2023-09-04T22:49:09.812Z,2.67
2023-09-04T22:53:29.795Z,2.15
2023-09-04T22:57:50.093Z,2.90
2023-09-04T23:02:09.981Z,2.88
2023-09-04T23:06:29.873Z,2.50
2023-09-04T23:10:49.729Z,2.42
2023-09-04T23:15:09.488Z,2.22
2023-09-04T23:19:29.547Z,2.30
2023-09-04T23:23:45.808Z,2.20
2023-09-04T23:27:51.854Z,2.58
2023-09-04T23:32:00.218Z,3.40
2023-09-04T23:36:16.123Z,2.55
2023-09-04T23:40:36.266Z,2.58
2023-09-04T23:44:56.270Z,2.97
2023-09-04T23:48:57.620Z,2.58
2023-09-04T23:52:59.073Z,3.05
2023-09-04T23:57:00.956Z,3.25
